Serro, Brazil
Current Conditions -  °F | °C
As of 1:00 PM on Thursday 18 Dec 2014 (Local Time) from SBLS Reporting Station
Scattered Clouds Scattered Clouds  
Wind Chill: 82°   Ceiling: Unl
Heat Index: 83°   Visibility: 6mi
Dew Point: 61°   Wind: 0mph
Humidity: 48%   Direction: NA
Pressure: 29.97"   Gusts: NA
Location:  18.6°S, 43.38°W
Report Text: SBLS 181500Z 00000KT 9999 SCT030 28/16 Q1015
Loading
Personal Weather Stations






























Interactive Weather Map New forecast layout! Learn more

10-Day Weather Forecast

Advertisements
Track Severe Weather on mobile